Time;durP1;ratioP1;P1;durP2;ratioP2;P2;SDS_P1;SDS_P2;PMS_P1;PMS_P2;Temp;Humidity;BMP_temperature;BMP_pressure;BME280_temperature;BME280_humidity;BME280_pressure;Samples;Min_cycle;Max_cycle;Signal;HPM_P1;HPM_P2
2022/10/22 00:02:18;;;;;;;13.20;6.88;;;;;;;11.67;100.00;100830.66;5024742;28;20056;-64
2022/10/22 00:04:44;;;;;;;10.27;5.80;;;;;;;11.64;100.00;100825.63;5024605;28;20106;-64
2022/10/22 00:07:10;;;;;;;10.55;6.60;;;;;;;11.64;100.00;100831.13;5024269;28;20139;-65
2022/10/22 00:09:35;;;;;;;9.10;6.10;;;;;;;11.62;100.00;100827.78;5023953;28;20228;-64
2022/10/22 00:12:00;;;;;;;8.23;5.90;;;;;;;11.56;100.00;100828.75;5023560;28;20499;-64
2022/10/22 00:14:25;;;;;;;9.90;5.63;;;;;;;11.48;100.00;100832.66;5022346;28;20064;-65
2022/10/22 00:16:51;;;;;;;8.68;5.57;;;;;;;11.42;100.00;100836.38;5024439;28;20099;-65
2022/10/22 00:19:16;;;;;;;10.10;5.70;;;;;;;11.33;100.00;100835.03;5024493;28;20029;-64
2022/10/22 00:21:41;;;;;;;9.57;5.13;;;;;;;11.29;100.00;100839.31;5024110;28;20025;-65
2022/10/22 00:24:07;;;;;;;11.38;6.03;;;;;;;11.26;100.00;100837.06;5023421;28;20442;-64
2022/10/22 00:26:32;;;;;;;8.23;5.20;;;;;;;11.21;100.00;100831.44;5024393;28;20033;-65
2022/10/22 00:28:57;;;;;;;10.13;6.50;;;;;;;11.15;100.00;100825.78;5022982;28;20045;-65
2022/10/22 00:31:23;;;;;;;9.52;5.25;;;;;;;11.11;100.00;100832.00;5023951;28;20082;-65
2022/10/22 00:33:48;;;;;;;10.05;5.72;;;;;;;11.09;100.00;100834.13;5024072;28;20293;-65
2022/10/22 00:36:15;;;;;;;9.38;4.93;;;;;;;11.10;100.00;100833.91;5024749;28;20029;-65
2022/10/22 00:38:40;;;;;;;8.48;5.20;;;;;;;11.04;100.00;100828.50;5023264;28;20029;-65
2022/10/22 00:41:05;;;;;;;10.38;5.80;;;;;;;11.07;100.00;100828.88;5023974;28;20029;-65
2022/10/22 00:43:31;;;;;;;8.98;5.25;;;;;;;11.02;100.00;100834.22;5038678;28;20420;-65
2022/10/22 00:45:56;;;;;;;9.82;5.05;;;;;;;11.01;100.00;100848.22;5023527;28;20527;-65
2022/10/22 00:48:27;;;;;;;11.55;4.60;;;;;;;10.97;100.00;100836.84;5024151;28;20098;-65
2022/10/22 00:51:07;;;;;;;10.65;4.75;;;;;;;10.95;100.00;100840.88;5023874;28;20384;-65
2022/10/22 00:53:35;;;;;;;8.00;5.05;;;;;;;10.94;100.00;100828.22;5022044;28;20321;-64
2022/10/22 00:56:01;;;;;;;12.23;5.13;;;;;;;10.91;100.00;100827.63;5024231;28;20029;-65
2022/10/22 00:58:30;;;;;;;11.10;5.60;;;;;;;10.96;100.00;100835.16;5023141;28;20030;-65
2022/10/22 01:00:55;;;;;;;10.35;5.28;;;;;;;10.91;100.00;100824.88;5023598;28;20030;-64
2022/10/22 01:03:21;;;;;;;8.90;5.13;;;;;;;10.91;100.00;100835.88;5023868;28;20313;-64
2022/10/22 01:05:58;;;;;;;9.43;5.10;;;;;;;10.93;100.00;100835.63;5024394;28;20037;-65
2022/10/22 01:09:04;;;;;;;10.63;5.50;;;;;;;10.96;100.00;100842.56;5023032;28;20040;-65
2022/10/22 01:11:41;;;;;;;9.57;5.75;;;;;;;10.96;100.00;100826.09;5023502;28;20319;-65
2022/10/22 01:14:17;;;;;;;8.35;5.50;;;;;;;10.96;100.00;100826.94;5022478;28;20091;-64
2022/10/22 01:17:06;;;;;;;8.07;5.30;;;;;;;10.96;100.00;100828.84;5023693;28;20145;-64
2022/10/22 01:19:58;;;;;;;10.05;5.18;;;;;;;10.93;100.00;100834.78;5023552;28;20321;-65
2022/10/22 01:22:32;;;;;;;10.18;5.50;;;;;;;10.90;100.00;100834.19;5025352;28;20106;-65
2022/10/22 01:25:26;;;;;;;11.38;5.50;;;;;;;10.87;100.00;100834.66;5027813;28;20087;-64
2022/10/22 01:28:00;;;;;;;10.15;5.72;;;;;;;10.86;100.00;100824.75;5026398;28;20076;-65
2022/10/22 01:30:26;;;;;;;14.52;5.60;;;;;;;10.84;100.00;100826.88;5027189;28;20048;-64
2022/10/22 01:32:55;;;;;;;7.68;5.18;;;;;;;10.83;100.00;100825.19;5027072;28;20476;-65
2022/10/22 01:35:30;;;;;;;11.30;5.22;;;;;;;10.83;100.00;100827.94;5027451;28;20487;-65
2022/10/22 01:37:59;;;;;;;11.57;5.90;;;;;;;10.86;100.00;100832.16;5026486;28;20033;-65
2022/10/22 01:40:27;;;;;;;9.52;5.80;;;;;;;10.86;100.00;100824.75;5027365;28;20108;-64
2022/10/22 01:43:00;;;;;;;9.98;5.75;;;;;;;10.90;100.00;100822.38;5026493;28;20025;-64
2022/10/22 01:45:29;;;;;;;10.70;6.70;;;;;;;10.91;100.00;100826.78;5027061;28;20041;-64
2022/10/22 01:48:00;;;;;;;11.25;6.22;;;;;;;10.90;100.00;100820.47;5027063;28;20436;-65
2022/10/22 01:50:41;;;;;;;11.45;6.65;;;;;;;10.89;100.00;100827.00;5026957;28;20030;-64
2022/10/22 01:53:43;;;;;;;14.77;7.80;;;;;;;10.94;100.00;100823.56;5026482;28;20029;-64
2022/10/22 01:56:35;;;;;;;12.60;6.30;;;;;;;10.93;100.00;100821.88;5026679;28;20041;-64
2022/10/22 01:59:26;;;;;;;12.18;6.68;;;;;;;10.91;100.00;100827.63;5026030;28;20478;-64
2022/10/22 02:02:17;;;;;;;13.93;6.10;;;;;;;10.88;100.00;100821.75;5018008;28;20033;-65
2022/10/22 02:04:52;;;;;;;12.98;6.90;;;;;;;10.93;100.00;100832.03;5026675;28;20021;-64
2022/10/22 02:07:22;;;;;;;11.20;6.82;;;;;;;10.90;100.00;100822.38;5026527;28;20022;-64
2022/10/22 02:09:51;;;;;;;11.00;6.30;;;;;;;10.91;100.00;100833.13;5027358;28;20014;-64
2022/10/22 02:12:20;;;;;;;12.20;6.47;;;;;;;10.91;100.00;100837.78;5026329;28;20051;-64
2022/10/22 02:14:47;;;;;;;9.75;6.20;;;;;;;10.90;100.00;100827.88;5025686;28;20083;-64
2022/10/22 02:17:18;;;;;;;10.63;6.88;;;;;;;10.93;100.00;100823.81;5026426;28;20040;-64
2022/10/22 02:19:54;;;;;;;14.38;7.53;;;;;;;11.05;100.00;100832.91;5026819;28;20148;-64
2022/10/22 02:22:20;;;;;;;10.98;6.82;;;;;;;11.11;100.00;100826.50;5026023;28;20063;-65
2022/10/22 02:24:47;;;;;;;13.15;7.13;;;;;;;11.09;100.00;100828.63;5026839;28;20029;-64
2022/10/22 02:27:35;;;;;;;13.43;7.65;;;;;;;11.16;100.00;100826.63;5025280;28;20167;-64
2022/10/22 02:30:20;;;;;;;12.27;7.43;;;;;;;11.16;100.00;100827.47;5026499;28;20048;-64
2022/10/22 02:32:55;;;;;;;14.32;7.78;;;;;;;11.10;100.00;100825.66;5025675;28;20476;-65
2022/10/22 02:35:24;;;;;;;11.65;6.45;;;;;;;11.11;100.00;100818.25;5026283;28;20026;-64
2022/10/22 02:37:51;;;;;;;11.50;6.22;;;;;;;11.09;100.00;100817.63;5025966;28;20025;-65
2022/10/22 02:40:17;;;;;;;13.93;7.18;;;;;;;11.19;100.00;100820.66;5026258;28;20480;-64
2022/10/22 02:42:46;;;;;;;15.55;8.75;;;;;;;11.33;100.00;100813.88;5025242;28;20028;-64
2022/10/22 02:45:11;;;;;;;17.27;7.65;;;;;;;11.26;100.00;100812.31;5026088;28;20033;-64
2022/10/22 02:47:36;;;;;;;15.20;8.20;;;;;;;11.29;100.00;100817.31;5025778;28;20032;-64
2022/10/22 02:50:02;;;;;;;13.23;7.72;;;;;;;11.25;100.00;100822.44;5025857;28;20032;-64
2022/10/22 02:52:27;;;;;;;15.00;8.05;;;;;;;11.27;100.00;100825.81;5025684;28;20025;-64
2022/10/22 02:54:52;;;;;;;15.63;8.07;;;;;;;11.27;100.00;100825.81;5025906;28;20036;-64
2022/10/22 02:57:18;;;;;;;17.45;8.05;;;;;;;11.22;100.00;100833.94;5025104;28;20017;-64
2022/10/22 02:59:43;;;;;;;13.98;8.13;;;;;;;11.36;100.00;100835.41;5026234;28;20029;-64
2022/10/22 03:02:08;;;;;;;13.60;8.23;;;;;;;11.38;100.00;100833.25;5025791;28;20021;-64
2022/10/22 03:04:33;;;;;;;20.60;9.18;;;;;;;11.41;100.00;100834.69;5025461;28;20025;-64
2022/10/22 03:06:59;;;;;;;15.00;8.35;;;;;;;11.43;100.00;100835.28;5025617;28;20030;-64
2022/10/22 03:09:24;;;;;;;16.60;9.32;;;;;;;11.48;100.00;100838.16;5025320;28;20021;-64
2022/10/22 03:11:49;;;;;;;15.55;8.65;;;;;;;11.48;100.00;100835.41;5024002;28;20492;-65
2022/10/22 03:14:15;;;;;;;14.10;9.23;;;;;;;11.49;100.00;100836.25;5025652;28;20030;-64
2022/10/22 03:16:40;;;;;;;15.05;9.30;;;;;;;11.55;100.00;100835.28;5025693;28;20037;-64
2022/10/22 03:19:05;;;;;;;14.55;9.80;;;;;;;11.59;100.00;100831.84;5025454;28;20079;-64
2022/10/22 03:21:44;;;;;;;17.85;9.65;;;;;;;11.57;100.00;100835.91;5025434;28;20068;-63
2022/10/22 03:24:19;;;;;;;18.88;9.65;;;;;;;11.55;100.00;100838.03;5024771;28;20064;-64
2022/10/22 03:26:46;;;;;;;15.00;9.15;;;;;;;11.56;100.00;100837.00;5024940;28;20037;-65
2022/10/22 03:29:13;;;;;;;16.55;10.57;;;;;;;11.60;100.00;100840.91;5024771;28;20036;-64
2022/10/22 03:31:38;;;;;;;16.73;10.15;;;;;;;11.64;100.00;100842.13;5025408;28;20277;-64
2022/10/22 03:34:04;;;;;;;16.73;9.35;;;;;;;11.70;100.00;100843.91;5025213;28;20057;-64
2022/10/22 03:36:31;;;;;;;18.42;10.00;;;;;;;11.72;100.00;100847.28;5024775;28;20021;-64
2022/10/22 03:38:58;;;;;;;16.67;10.30;;;;;;;11.75;100.00;100860.53;5024435;28;20079;-64
2022/10/22 03:41:23;;;;;;;16.77;9.13;;;;;;;11.81;100.00;100862.38;5025036;28;20112;-65
2022/10/22 03:43:51;;;;;;;15.63;9.55;;;;;;;11.81;100.00;100859.63;5023720;28;20104;-65
2022/10/22 03:46:16;;;;;;;;;;;;;;;11.85;100.00;100860.81;5025743;28;20124;-64
2022/10/22 03:48:42;;;;;;;15.37;8.97;;;;;;;11.90;100.00;100866.44;5024965;28;20008;-64
2022/10/22 03:51:07;;;;;;;18.17;8.57;;;;;;;11.98;100.00;100861.69;5024222;28;20026;-64
2022/10/22 03:53:32;;;;;;;19.65;9.35;;;;;;;12.02;100.00;100862.88;5024315;28;20487;-64
2022/10/22 03:55:57;;;;;;;18.42;8.43;;;;;;;12.04;100.00;100869.81;5024959;28;20260;-64
2022/10/22 03:58:23;;;;;;;15.85;8.70;;;;;;;12.08;100.00;100872.94;5039489;28;20040;-64
2022/10/22 04:00:48;;;;;;;17.05;8.77;;;;;;;12.10;100.00;100873.50;5024357;28;20087;-65
2022/10/22 04:03:13;;;;;;;19.38;8.68;;;;;;;12.11;100.00;100877.94;5024943;28;20021;-64
2022/10/22 04:05:39;;;;;;;14.32;7.90;;;;;;;12.05;100.00;100881.66;5024574;28;20117;-64
2022/10/22 04:08:04;;;;;;;16.65;8.30;;;;;;;12.08;100.00;100875.69;5023674;28;20022;-64
2022/10/22 04:10:29;;;;;;;15.00;8.38;;;;;;;12.11;100.00;100881.53;5023328;28;20606;-65
2022/10/22 04:12:55;;;;;;;19.52;8.55;;;;;;;12.12;100.00;100879.63;5023702;28;20057;-64
2022/10/22 04:15:20;;;;;;;17.08;8.43;;;;;;;12.10;100.00;100884.53;5023272;28;20376;-64
2022/10/22 04:17:45;;;;;;;18.35;8.82;;;;;;;12.14;100.00;100880.22;5014821;28;20108;-64
2022/10/22 04:20:11;;;;;;;16.45;8.20;;;;;;;12.15;100.00;100887.41;5004532;28;20038;-64
2022/10/22 04:22:36;;;;;;;16.05;9.00;;;;;;;12.20;100.00;100888.34;5004377;28;20372;-64
2022/10/22 04:25:03;;;;;;;16.77;8.98;;;;;;;12.20;100.00;100879.25;5004105;28;20388;-65
2022/10/22 04:27:30;;;;;;;15.30;8.45;;;;;;;12.18;100.00;100881.41;5003916;28;20041;-64
2022/10/22 04:29:56;;;;;;;17.67;8.88;;;;;;;12.21;100.00;100880.91;5004241;28;20453;-64
2022/10/22 04:32:21;;;;;;;18.08;8.68;;;;;;;12.21;100.00;100886.44;5004093;28;20046;-65
2022/10/22 04:34:46;;;;;;;20.00;8.88;;;;;;;12.19;100.00;100877.59;5004865;28;20026;-64
2022/10/22 04:37:11;;;;;;;20.15;8.57;;;;;;;12.21;100.00;100875.41;5004221;28;20060;-65
2022/10/22 04:39:37;;;;;;;21.42;8.77;;;;;;;12.20;100.00;100879.25;5004133;28;20436;-65
2022/10/22 04:42:02;;;;;;;17.90;7.70;;;;;;;12.22;100.00;100882.63;5003177;28;20014;-64
2022/10/22 04:44:28;;;;;;;15.80;7.45;;;;;;;12.22;100.00;100879.88;5002692;28;20018;-65
2022/10/22 04:46:53;;;;;;;16.17;7.40;;;;;;;12.23;100.00;100881.53;5004126;28;20026;-65
2022/10/22 04:49:19;;;;;;;14.02;7.18;;;;;;;12.20;100.00;100885.59;5015088;28;20037;-66
2022/10/22 04:51:44;;;;;;;14.68;7.25;;;;;;;12.24;100.00;100893.38;5024533;28;20030;-64
2022/10/22 04:54:09;;;;;;;17.35;8.23;;;;;;;12.23;100.00;100895.31;5023467;28;20473;-64
2022/10/22 04:56:35;;;;;;;14.55;7.40;;;;;;;12.24;100.00;100896.13;5024436;28;20076;-64
2022/10/22 04:59:03;;;;;;;18.80;7.57;;;;;;;12.23;100.00;100894.47;5027527;28;20477;-65
2022/10/22 05:01:31;;;;;;;15.45;7.68;;;;;;;12.23;100.00;100888.97;5028057;28;20077;-64
2022/10/22 05:03:58;;;;;;;;;;;;;;;12.26;100.00;100903.06;5028254;28;20025;-65
2022/10/22 05:06:24;;;;;;;19.48;7.75;;;;;;;12.28;100.00;100903.69;5027592;28;19951;-64
2022/10/22 05:09:00;;;;;;;18.27;7.90;;;;;;;12.26;100.00;100903.06;5027433;28;20076;-65
2022/10/22 05:11:29;;;;;;;19.20;7.60;;;;;;;12.27;100.00;100904.75;5027637;28;20112;-65
2022/10/22 05:13:56;;;;;;;17.40;7.78;;;;;;;12.28;100.00;100903.69;5027692;28;20021;-65
2022/10/22 05:16:22;;;;;;;14.15;7.60;;;;;;;12.29;100.00;100904.50;5027603;28;20454;-65
2022/10/22 05:18:47;;;;;;;20.45;7.10;;;;;;;12.29;100.00;100905.34;5027708;28;20025;-64
2022/10/22 05:21:16;;;;;;;15.93;7.22;;;;;;;12.34;100.00;100910.13;5027147;28;20268;-64
2022/10/22 05:23:43;;;;;;;17.42;6.70;;;;;;;12.34;100.00;100916.47;5027362;28;20531;-65
2022/10/22 05:26:10;;;;;;;20.35;8.00;;;;;;;12.37;100.00;100904.16;5026919;28;20495;-64
2022/10/22 05:28:36;;;;;;;17.23;6.97;;;;;;;12.37;100.00;100913.25;5026758;28;20072;-65
2022/10/22 05:31:02;;;;;;;16.77;7.70;;;;;;;12.41;100.00;100908.09;5027426;28;20045;-65
2022/10/22 05:33:29;;;;;;;15.88;8.48;;;;;;;12.44;100.00;100905.69;5027487;28;20028;-65
2022/10/22 05:35:55;;;;;;;13.50;7.35;;;;;;;12.48;100.00;100907.97;5026685;28;20025;-65
2022/10/22 05:38:21;;;;;;;19.13;7.45;;;;;;;12.46;100.00;100905.44;5026908;28;20313;-65
2022/10/22 05:40:46;;;;;;;14.32;7.07;;;;;;;12.47;100.00;100901.63;5027573;28;20033;-64
2022/10/22 05:43:12;;;;;;;18.55;7.32;;;;;;;12.50;100.00;100900.28;5025948;28;20032;-65
2022/10/22 05:45:41;;;;;;;19.65;6.72;;;;;;;12.51;100.00;100919.31;5027231;28;20026;-64
2022/10/22 05:48:08;;;;;;;16.67;6.68;;;;;;;12.53;100.00;100916.34;5027177;28;20029;-65
2022/10/22 05:50:38;;;;;;;19.63;7.30;;;;;;;12.55;100.00;100919.69;5026872;28;20021;-65
2022/10/22 05:53:04;;;;;;;13.70;6.25;;;;;;;12.51;100.00;100922.09;5026739;28;20076;-65
2022/10/22 05:55:35;;;;;;;15.77;7.40;;;;;;;12.49;100.00;100924.25;5027470;28;20056;-65
2022/10/22 05:58:02;;;;;;;20.58;8.10;;;;;;;12.48;100.00;100932.78;5025758;28;20075;-65
2022/10/22 06:00:27;;;;;;;21.85;7.78;;;;;;;12.48;100.00;100936.34;5026956;28;20046;-65
2022/10/22 06:02:52;;;;;;;22.75;7.63;;;;;;;12.46;100.00;100935.75;5026518;28;20060;-65
2022/10/22 06:05:17;;;;;;;20.02;7.00;;;;;;;12.48;100.00;100941.03;5027151;28;20029;-64
2022/10/22 06:07:43;;;;;;;22.67;7.55;;;;;;;12.45;100.00;100942.34;5026376;28;20033;-65
2022/10/22 06:10:14;;;;;;;16.75;6.90;;;;;;;12.52;100.00;100945.81;5026906;28;20063;-65
2022/10/22 06:12:39;;;;;;;17.52;6.70;;;;;;;12.44;100.00;100941.50;5025827;28;20044;-65
2022/10/22 06:15:06;;;;;;;19.70;7.43;;;;;;;12.46;100.00;100944.00;5026325;28;20133;-65
2022/10/22 06:17:31;;;;;;;20.23;7.13;;;;;;;12.49;100.00;100950.97;5025476;28;20357;-65
2022/10/22 06:19:56;;;;;;;15.98;6.47;;;;;;;12.50;100.00;100958.16;5026306;28;20032;-65
2022/10/22 06:22:21;;;;;;;16.95;6.63;;;;;;;12.52;100.00;100962.34;5026047;28;20033;-65
2022/10/22 06:24:47;;;;;;;18.67;5.47;;;;;;;12.51;100.00;100957.06;5027194;28;20104;-65
2022/10/22 06:27:12;;;;;;;16.67;5.78;;;;;;;12.51;100.00;100973.59;5025441;28;20056;-64
2022/10/22 06:29:37;;;;;;;15.70;5.38;;;;;;;12.52;100.00;100972.50;5026781;28;20099;-65
2022/10/22 06:32:03;;;;;;;16.33;5.70;;;;;;;12.53;100.00;100972.28;5025740;28;20032;-65
2022/10/22 06:34:28;;;;;;;16.58;5.97;;;;;;;12.53;100.00;100986.06;5026257;28;20051;-65
2022/10/22 06:36:53;;;;;;;18.02;6.65;;;;;;;12.57;100.00;100978.13;5026505;28;20025;-65
2022/10/22 06:39:18;;;;;;;14.77;5.35;;;;;;;12.60;100.00;100991.44;5025801;28;20520;-66
2022/10/22 06:41:44;;;;;;;16.00;5.45;;;;;;;12.60;100.00;100994.19;5026057;28;20028;-64
2022/10/22 06:44:14;;;;;;;16.92;6.20;;;;;;;12.60;100.00;100996.94;5026351;28;20029;-65
2022/10/22 06:46:39;;;;;;;15.20;5.22;;;;;;;12.57;100.00;100995.53;5025543;28;20131;-64
2022/10/22 06:49:05;;;;;;;14.48;4.72;;;;;;;12.59;100.00;100998.03;5026169;28;20221;-64
2022/10/22 06:51:30;;;;;;;15.65;5.30;;;;;;;12.62;100.00;101005.81;5026332;28;20376;-64
2022/10/22 06:53:57;;;;;;;16.40;5.00;;;;;;;12.65;100.00;101003.41;5025659;28;20033;-64
2022/10/22 06:56:25;;;;;;;17.00;5.28;;;;;;;12.66;100.00;101015.28;5024733;28;20104;-64
2022/10/22 06:58:52;;;;;;;13.25;4.90;;;;;;;12.64;100.00;101012.75;5025901;28;20021;-64
2022/10/22 07:01:21;;;;;;;18.23;5.47;;;;;;;12.65;100.00;101032.88;5026335;28;20124;-65
2022/10/22 07:03:49;;;;;;;14.20;4.93;;;;;;;12.67;100.00;101028.84;5025440;28;20044;-64
2022/10/22 07:06:15;;;;;;;12.60;4.50;;;;;;;12.68;100.00;101033.25;5026257;28;20055;-64
2022/10/22 07:08:41;;;;;;;14.77;4.65;;;;;;;12.69;100.00;101032.16;5025282;28;20038;-65
2022/10/22 07:11:11;;;;;;;13.77;5.03;;;;;;;12.72;100.00;101041.84;5024640;28;20025;-66
2022/10/22 07:13:36;;;;;;;17.83;5.53;;;;;;;12.75;100.00;101035.88;5025552;28;20037;-65
2022/10/22 07:16:02;;;;;;;14.27;4.47;;;;;;;12.79;100.00;101042.59;5025008;28;20041;-65
2022/10/22 07:18:27;;;;;;;13.52;4.82;;;;;;;12.83;100.00;101049.31;5024914;28;20022;-65
2022/10/22 07:20:53;;;;;;;10.70;5.13;;;;;;;12.89;100.00;101047.50;5024847;28;20124;-65
2022/10/22 07:23:18;;;;;;;11.27;4.30;;;;;;;12.94;100.00;101055.88;5025046;28;20037;-66
2022/10/22 07:25:43;;;;;;;13.05;4.97;;;;;;;12.91;100.00;101048.91;5025294;28;20316;-65
2022/10/22 07:28:09;;;;;;;12.85;5.00;;;;;;;12.92;100.00;101052.50;5024558;28;20025;-64
2022/10/22 07:30:35;;;;;;;14.02;4.68;;;;;;;12.92;100.00;101061.63;5025401;28;20100;-65
2022/10/22 07:33:01;;;;;;;16.83;4.57;;;;;;;13.01;100.00;101061.25;5024942;28;20027;-65
2022/10/22 07:35:26;;;;;;;14.38;4.45;;;;;;;13.05;100.00;101062.47;5024633;28;20025;-65
2022/10/22 07:37:51;;;;;;;14.90;4.72;;;;;;;13.08;100.00;101067.50;5024525;28;20017;-64
2022/10/22 07:40:17;;;;;;;12.65;4.30;;;;;;;13.15;100.00;101062.69;5025328;28;20029;-65
2022/10/22 07:42:42;;;;;;;16.42;5.53;;;;;;;13.21;100.00;101079.13;5024094;28;20021;-64
2022/10/22 07:45:08;;;;;;;15.23;4.90;;;;;;;13.35;100.00;101079.72;5024704;28;20038;-65
2022/10/22 07:47:33;;;;;;;10.93;4.18;;;;;;;13.54;100.00;101074.88;5023693;28;20370;-65
2022/10/22 07:49:58;;;;;;;15.30;3.80;;;;;;;13.70;100.00;101078.75;5024865;28;20070;-65
2022/10/22 07:52:24;;;;;;;13.98;4.35;;;;;;;13.76;100.00;101075.00;5024028;28;20413;-65
2022/10/22 07:54:49;;;;;;;11.90;4.50;;;;;;;13.86;100.00;101077.13;5024592;28;20577;-66
2022/10/22 07:57:14;;;;;;;14.35;4.47;;;;;;;13.97;100.00;101090.88;5024111;28;20025;-65
2022/10/22 07:59:39;;;;;;;11.32;4.05;;;;;;;14.14;100.00;101090.06;5024776;28;20440;-65
2022/10/22 08:02:05;;;;;;;11.85;4.03;;;;;;;14.27;100.00;101079.56;5024653;28;20062;-64
2022/10/22 08:04:30;;;;;;;11.85;3.35;;;;;;;14.45;100.00;101083.19;5024795;28;20029;-65
2022/10/22 08:06:55;;;;;;;14.02;3.55;;;;;;;14.59;100.00;101095.59;5024306;28;20040;-65
2022/10/22 08:09:21;;;;;;;12.10;2.90;;;;;;;14.85;100.00;101096.00;5024130;28;20248;-65
2022/10/22 08:11:46;;;;;;;10.50;3.45;;;;;;;15.31;100.00;101098.34;5023976;28;20029;-64
2022/10/22 08:14:11;;;;;;;16.35;3.78;;;;;;;16.09;97.83;101104.56;5024115;28;20022;-65
2022/10/22 08:16:37;;;;;;;10.77;3.05;;;;;;;16.38;93.93;101104.31;5023975;28;20047;-65
2022/10/22 08:19:02;;;;;;;12.40;3.30;;;;;;;16.26;93.51;101104.44;5023815;28;20061;-65
2022/10/22 08:21:28;;;;;;;13.63;3.60;;;;;;;16.05;94.52;101116.44;5024409;28;20044;-65
2022/10/22 08:23:53;;;;;;;14.43;3.60;;;;;;;15.97;94.05;101114.13;5023835;28;20041;-65
2022/10/22 08:26:19;;;;;;;12.57;3.33;;;;;;;16.05;93.38;101121.97;5023627;28;20025;-66
2022/10/22 08:28:44;;;;;;;11.07;2.55;;;;;;;16.44;90.52;101117.09;5024333;28;20026;-65
2022/10/22 08:31:09;;;;;;;14.60;3.57;;;;;;;16.97;88.96;101111.72;5022871;28;20025;-65
2022/10/22 08:33:35;;;;;;;13.45;3.65;;;;;;;18.07;84.16;101114.50;5023821;28;20280;-65
2022/10/22 08:36:01;;;;;;;9.85;2.63;;;;;;;19.20;78.45;101127.34;5024201;28;20409;-65
2022/10/22 08:38:26;;;;;;;9.20;2.50;;;;;;;18.74;76.78;101126.56;5023868;28;20535;-65
2022/10/22 08:41:04;;;;;;;12.48;2.70;;;;;;;17.81;81.91;101142.22;5023639;28;20366;-65
2022/10/22 08:43:51;;;;;;;13.63;3.03;;;;;;;17.11;86.95;101143.47;5022517;28;20029;-65
2022/10/22 08:46:51;;;;;;;10.98;2.40;;;;;;;16.64;88.52;101148.91;5024134;28;20560;-65
2022/10/22 08:49:24;;;;;;;11.65;2.50;;;;;;;16.25;89.42;101154.59;5024426;28;20076;-64
2022/10/22 08:51:50;;;;;;;12.10;3.13;;;;;;;16.09;91.26;101165.53;5023763;28;20036;-65
2022/10/22 08:54:35;;;;;;;8.10;2.50;;;;;;;16.19;92.08;101166.75;5023780;28;20029;-65
2022/10/22 08:57:38;;;;;;;11.02;2.53;;;;;;;16.25;91.02;101166.53;5022996;28;20087;-65
2022/10/22 09:00:09;;;;;;;13.82;2.80;;;;;;;15.89;92.04;101172.75;5023450;28;20029;-65
2022/10/22 09:03:04;;;;;;;8.23;2.60;;;;;;;15.82;94.02;101175.72;5024044;28;20056;-65
2022/10/22 09:05:44;;;;;;;9.60;3.03;;;;;;;15.71;93.96;101179.44;5024035;28;20116;-65
2022/10/22 09:08:11;;;;;;;10.18;2.55;;;;;;;15.64;94.22;101174.09;5023094;28;20424;-65
2022/10/22 09:10:42;;;;;;;12.15;2.35;;;;;;;15.69;94.25;101185.25;5023489;28;20049;-65
2022/10/22 09:13:13;;;;;;;10.57;2.95;;;;;;;15.76;94.48;101185.91;5022929;28;20066;-64
2022/10/22 09:15:38;;;;;;;11.25;2.60;;;;;;;15.77;94.23;101192.28;5023645;28;20052;-65
2022/10/22 09:18:43;;;;;;;12.65;2.83;;;;;;;15.79;95.33;101187.31;5022972;28;20021;-64
2022/10/22 09:21:08;;;;;;;13.73;2.72;;;;;;;15.72;94.40;101190.28;5015335;28;20095;-65
2022/10/22 09:23:59;;;;;;;9.57;2.90;;;;;;;15.76;95.47;101202.53;5022994;28;20030;-65
2022/10/22 09:26:25;;;;;;;9.57;2.67;;;;;;;15.72;95.23;101206.06;5022489;28;20060;-65
2022/10/22 09:28:51;;;;;;;9.10;2.80;;;;;;;15.70;94.51;101200.75;5023738;28;20099;-65
2022/10/22 09:31:17;;;;;;;10.90;2.88;;;;;;;15.68;94.40;101205.72;5023968;28;20026;-65
2022/10/22 09:33:47;;;;;;;14.18;3.10;;;;;;;15.64;93.88;101207.31;5023832;28;20362;-65
2022/10/22 09:36:16;;;;;;;11.85;3.00;;;;;;;15.57;95.37;101213.03;5023710;28;20014;-65
2022/10/22 09:38:47;;;;;;;12.30;2.95;;;;;;;15.55;96.62;101214.34;5023611;28;20526;-65
2022/10/22 09:41:13;;;;;;;14.23;3.17;;;;;;;15.53;96.39;101217.38;5022023;28;20488;-65
2022/10/22 09:43:38;;;;;;;11.35;3.03;;;;;;;15.60;96.13;101221.91;5025859;28;20046;-65
2022/10/22 09:46:07;;;;;;;13.07;3.45;;;;;;;15.62;95.97;101225.28;5027046;28;20191;-65
2022/10/22 09:48:40;;;;;;;12.73;3.50;;;;;;;15.67;95.37;101223.44;5025830;28;20493;-65
2022/10/22 09:51:19;;;;;;;14.85;3.53;;;;;;;15.70;94.95;101233.16;5026923;28;20171;-65
2022/10/22 09:53:56;;;;;;;12.70;3.60;;;;;;;15.68;95.36;101227.03;5026799;28;20029;-65
2022/10/22 09:56:26;;;;;;;11.00;3.60;;;;;;;15.64;96.41;101239.72;5026286;28;20637;-65
2022/10/22 09:58:54;;;;;;;9.10;3.15;;;;;;;15.63;96.50;101238.88;5026684;28;20037;-65
2022/10/22 10:01:33;;;;;;;12.90;3.50;;;;;;;15.64;96.10;101245.25;5026672;28;20372;-65
2022/10/22 10:04:04;;;;;;;8.80;3.03;;;;;;;15.60;96.03;101255.13;5026675;28;20447;-65
2022/10/22 10:06:31;;;;;;;10.38;2.72;;;;;;;15.60;96.63;101257.91;5027167;28;20030;-65
2022/10/22 10:09:00;;;;;;;10.48;3.30;;;;;;;15.62;95.79;101259.34;5026102;28;20022;-65
2022/10/22 10:11:31;;;;;;;10.68;2.67;;;;;;;15.58;96.53;101263.69;5026051;28;20030;-65
2022/10/22 10:14:19;;;;;;;11.48;3.08;;;;;;;15.57;96.78;101273.94;5026022;28;20036;-65
2022/10/22 10:16:59;;;;;;;;;;;;;;;15.64;96.85;101271.00;5026990;28;20056;-65
2022/10/22 10:19:42;;;;;;;14.13;3.10;;;;;;;15.59;95.46;101265.38;5026329;28;20528;-65
2022/10/22 10:22:20;;;;;;;9.90;3.00;;;;;;;15.70;96.42;101277.47;5026201;28;20119;-64
2022/10/22 10:25:01;;;;;;;11.77;3.05;;;;;;;15.89;94.96;101281.63;5026423;28;20028;-65
2022/10/22 10:27:34;;;;;;;9.25;2.90;;;;;;;16.08;94.38;101280.22;5025689;28;20030;-65
2022/10/22 10:30:14;;;;;;;8.43;3.08;;;;;;;16.38;93.36;101290.03;5026010;28;20026;-65
2022/10/22 10:32:49;;;;;;;14.55;3.05;;;;;;;16.50;91.97;101287.94;5026170;28;20018;-65
2022/10/22 10:35:21;;;;;;;11.10;2.92;;;;;;;16.91;90.43;101280.09;5026397;28;20469;-65
2022/10/22 10:38:08;;;;;;;9.65;2.90;;;;;;;18.31;85.00;101278.91;5026029;28;20103;-65
2022/10/22 10:40:45;;;;;;;10.80;2.87;;;;;;;20.41;74.27;101277.75;5026062;28;20029;-65
2022/10/22 10:43:21;;;;;;;9.20;2.60;;;;;;;20.92;71.22;101275.53;5025531;28;20050;-65
2022/10/22 10:46:10;;;;;;;12.00;3.05;;;;;;;22.57;68.79;101268.03;5024909;28;20128;-65
2022/10/22 10:48:53;;;;;;;8.15;2.30;;;;;;;23.90;61.22;101275.13;5026254;28;20033;-65
2022/10/22 10:51:21;;;;;;;11.70;2.22;;;;;;;24.11;55.75;101274.75;5026178;28;20412;-65
2022/10/22 10:54:00;;;;;;;8.27;2.20;;;;;;;24.83;55.33;101284.13;5025365;28;20076;-65
2022/10/22 10:57:04;;;;;;;8.70;2.30;;;;;;;25.07;53.74;101289.50;5024870;28;20034;-65
2022/10/22 10:59:39;;;;;;;10.05;2.83;;;;;;;24.07;53.45;101282.94;5003018;28;20026;-64
2022/10/22 11:02:33;;;;;;;13.88;2.45;;;;;;;23.48;57.34;101281.78;5022323;28;20191;-65
2022/10/22 11:05:16;;;;;;;10.07;2.40;;;;;;;23.30;59.45;101291.88;5025240;28;20435;-64
2022/10/22 11:07:53;;;;;;;9.75;2.60;;;;;;;22.54;59.09;101286.25;5025157;28;20025;-65
2022/10/22 11:10:28;;;;;;;8.30;2.42;;;;;;;21.34;63.45;101290.91;5026024;28;20347;-65
2022/10/22 11:13:18;;;;;;;8.55;2.28;;;;;;;20.37;67.89;101296.19;5024831;28;20383;-64
2022/10/22 11:16:10;;;;;;;9.88;2.42;;;;;;;20.08;69.29;101287.69;5025798;28;20128;-64
2022/10/22 11:18:43;;;;;;;11.43;2.50;;;;;;;20.59;66.60;101293.91;5021752;28;20048;-65
2022/10/22 11:21:23;;;;;;;10.48;2.30;;;;;;;21.74;64.82;101294.44;5025263;28;20044;-64
2022/10/22 11:24:04;;;;;;;9.23;2.33;;;;;;;23.25;59.25;101294.78;5024452;28;20030;-66
2022/10/22 11:26:37;;;;;;;8.65;2.35;;;;;;;22.61;58.98;101294.31;5024414;28;20116;-64
2022/10/22 11:29:10;;;;;;;8.10;2.55;;;;;;;21.19;62.23;101297.44;5024795;28;20392;-64